Time;durP1;ratioP1;P1;durP2;ratioP2;P2;SDS_P1;SDS_P2;PMS_P1;PMS_P2;Temp;Humidity;BMP_temperature;BMP_pressure;BME280_temperature;BME280_humidity;BME280_pressure;Samples;Min_cycle;Max_cycle;Signal;HPM_P1;HPM_P2
2023/06/06 00:01:56;;;;;;;18.60;16.65;;;8.80;99.90;;;;;;5112288;28;20493;-76
2023/06/06 00:04:22;;;;;;;17.52;15.68;;;8.70;99.90;;;;;;5100657;28;20078;-76
2023/06/06 00:06:47;;;;;;;18.50;16.65;;;8.70;99.90;;;;;;5087126;28;20043;-76
2023/06/06 00:09:13;;;;;;;18.02;16.20;;;8.60;99.90;;;;;;5091783;28;20134;-76
2023/06/06 00:11:39;;;;;;;18.27;16.48;;;8.60;99.90;;;;;;5091815;28;20039;-76
2023/06/06 00:14:07;;;;;;;21.42;18.45;;;8.60;99.90;;;;;;5092613;28;20036;-76
2023/06/06 00:16:34;;;;;;;18.45;16.55;;;8.60;99.90;;;;;;5077289;28;20028;-76
2023/06/06 00:19:00;;;;;;;19.23;17.33;;;8.60;99.90;;;;;;5090196;28;20041;-76
2023/06/06 00:21:26;;;;;;;22.42;18.73;;;8.50;99.90;;;;;;5111304;28;20081;-77
2023/06/06 00:23:52;;;;;;;18.73;16.83;;;8.50;99.90;;;;;;5086211;28;20053;-76
2023/06/06 00:26:18;;;;;;;19.40;17.50;;;8.50;99.90;;;;;;5077473;28;20042;-77
2023/06/06 00:28:43;;;;;;;21.00;18.50;;;8.50;99.90;;;;;;5094588;28;20127;-76
2023/06/06 00:31:09;;;;;;;22.92;18.60;;;8.50;99.90;;;;;;5090463;28;20089;-76
2023/06/06 00:33:34;;;;;;;18.92;17.13;;;8.40;99.90;;;;;;5081336;28;20032;-76
2023/06/06 00:36:00;;;;;;;18.63;16.83;;;8.40;99.90;;;;;;5077105;28;20039;-76
2023/06/06 00:38:25;;;;;;;19.83;17.63;;;8.40;99.90;;;;;;5077545;28;20195;-76
2023/06/06 00:40:51;;;;;;;18.95;17.13;;;8.30;99.90;;;;;;5104334;28;20035;-76
2023/06/06 00:43:16;;;;;;;19.48;17.48;;;8.30;99.90;;;;;;5105963;27;20044;-76
2023/06/06 00:45:42;;;;;;;21.45;18.95;;;8.30;99.90;;;;;;5090141;28;20032;-77
2023/06/06 00:48:08;;;;;;;20.77;17.60;;;8.20;99.90;;;;;;5090707;28;20036;-76
2023/06/06 00:50:36;;;;;;;18.95;17.05;;;8.20;99.90;;;;;;5090184;28;20124;-76
2023/06/06 00:53:03;;;;;;;20.05;18.02;;;8.20;99.90;;;;;;5075987;28;20051;-76
2023/06/06 00:55:29;;;;;;;18.25;16.45;;;8.10;99.90;;;;;;5090611;28;20082;-76
2023/06/06 00:57:55;;;;;;;20.65;18.45;;;8.10;99.90;;;;;;5105599;28;20040;-76
2023/06/06 01:00:21;;;;;;;20.70;18.58;;;8.00;99.90;;;;;;5090727;28;20448;-76
2023/06/06 01:02:48;;;;;;;20.33;18.23;;;8.00;99.90;;;;;;5090604;28;20040;-76
2023/06/06 01:05:16;;;;;;;20.65;18.48;;;7.90;99.90;;;;;;5092263;28;20051;-76
2023/06/06 01:07:43;;;;;;;21.40;19.20;;;7.90;99.90;;;;;;5107992;28;20031;-76
2023/06/06 01:10:09;;;;;;;22.40;19.92;;;7.90;99.90;;;;;;5094213;28;20043;-77
2023/06/06 01:12:47;;;;;;;22.55;19.40;;;7.80;99.90;;;;;;5094227;28;20487;-76
2023/06/06 01:15:39;;;;;;;21.52;19.25;;;7.80;99.90;;;;;;5102847;28;20031;-76
2023/06/06 01:18:05;;;;;;;22.60;20.30;;;7.80;99.90;;;;;;5093262;28;20037;-76
2023/06/06 01:20:33;;;;;;;24.58;20.92;;;7.70;99.90;;;;;;5113544;28;20118;-76
2023/06/06 01:22:59;;;;;;;22.08;19.63;;;7.70;99.90;;;;;;5094941;28;20409;-76
2023/06/06 01:25:25;;;;;;;23.08;20.23;;;7.70;99.90;;;;;;5097210;28;20032;-76
2023/06/06 01:27:53;;;;;;;23.67;20.10;;;7.70;99.90;;;;;;5096731;28;20040;-76
2023/06/06 01:30:22;;;;;;;27.02;22.50;;;7.70;99.90;;;;;;5094844;28;20048;-76
2023/06/06 01:32:56;;;;;;;25.27;21.90;;;7.70;99.90;;;;;;5077051;28;20172;-76
2023/06/06 01:35:31;;;;;;;29.02;24.10;;;7.70;99.90;;;;;;5093367;28;20081;-76
2023/06/06 01:38:20;;;;;;;29.25;22.38;;;7.70;99.90;;;;;;5099048;28;20070;-77
2023/06/06 01:40:49;;;;;;;27.00;22.02;;;7.70;99.90;;;;;;5094036;28;20105;-76
2023/06/06 01:43:16;;;;;;;26.55;22.30;;;7.70;99.90;;;;;;5095807;27;20072;-77
2023/06/06 01:45:43;;;;;;;30.35;23.75;;;7.80;99.90;;;;;;5108147;28;20065;-76
2023/06/06 01:48:09;;;;;;;26.85;22.83;;;7.80;99.90;;;;;;5111551;28;20040;-77
2023/06/06 01:50:36;;;;;;;26.23;20.65;;;7.80;99.90;;;;;;5111530;28;20048;-77
2023/06/06 01:53:02;;;;;;;25.00;22.17;;;7.80;99.90;;;;;;5104752;28;20325;-76
2023/06/06 01:55:27;;;;;;;25.50;21.48;;;7.80;99.90;;;;;;5076632;28;20036;-76
2023/06/06 01:57:53;;;;;;;24.80;21.50;;;7.80;99.90;;;;;;5097170;28;20522;-76
2023/06/06 02:00:20;;;;;;;24.42;21.60;;;7.80;99.90;;;;;;5114383;28;20042;-76
2023/06/06 02:02:46;;;;;;;26.50;21.83;;;7.80;99.90;;;;;;5085126;28;20062;-77
2023/06/06 02:05:12;;;;;;;26.55;21.90;;;7.80;99.90;;;;;;5087620;28;20478;-76
2023/06/06 02:07:37;;;;;;;23.80;21.40;;;7.80;99.90;;;;;;5113851;28;20533;-76
2023/06/06 02:10:04;;;;;;;25.75;20.88;;;7.80;99.90;;;;;;5097228;28;20127;-76
2023/06/06 02:12:31;;;;;;;28.52;21.90;;;7.80;99.90;;;;;;5102620;28;20485;-76
2023/06/06 02:15:01;;;;;;;25.98;22.05;;;7.80;99.90;;;;;;5050473;22;1999253;-78
2023/06/06 02:17:28;;;;;;;21.67;19.48;;;7.80;99.90;;;;;;5036387;28;20132;-78
2023/06/06 02:19:56;;;;;;;25.20;21.13;;;7.80;99.90;;;;;;5036067;28;20041;-78
2023/06/06 02:22:26;;;;;;;25.23;21.15;;;7.70;99.90;;;;;;5036638;28;20029;-78
2023/06/06 02:24:52;;;;;;;24.95;21.08;;;7.70;99.90;;;;;;5050204;28;20043;-78
2023/06/06 02:27:21;;;;;;;22.92;19.75;;;7.70;99.90;;;;;;5055254;28;20063;-77
2023/06/06 02:29:47;;;;;;;24.70;20.42;;;7.70;99.90;;;;;;5054708;28;20482;-78
2023/06/06 02:32:13;;;;;;;22.38;19.92;;;7.60;99.90;;;;;;5036455;28;20491;-77
2023/06/06 02:34:39;;;;;;;22.48;20.20;;;7.70;99.90;;;;;;5047369;28;20037;-77
2023/06/06 02:37:06;;;;;;;22.75;19.25;;;7.60;99.90;;;;;;5055689;28;20029;-77
2023/06/06 02:39:36;;;;;;;25.98;20.95;;;7.60;99.90;;;;;;5056068;28;20405;-77
2023/06/06 02:42:06;;;;;;;23.20;19.70;;;7.50;99.90;;;;;;5073057;28;20032;-77
2023/06/06 02:44:35;;;;;;;23.38;20.67;;;7.50;99.90;;;;;;5057733;28;20029;-78
2023/06/06 02:47:03;;;;;;;23.45;19.42;;;7.50;99.90;;;;;;5055749;28;20094;-78
2023/06/06 02:49:29;;;;;;;32.05;23.60;;;7.50;99.90;;;;;;5072681;28;20068;-78
2023/06/06 02:51:55;;;;;;;25.50;20.15;;;7.50;99.90;;;;;;5056070;28;20075;-78
2023/06/06 02:54:21;;;;;;;27.63;20.63;;;7.50;99.90;;;;;;5054774;28;20036;-78
2023/06/06 02:56:50;;;;;;;24.73;20.55;;;7.50;99.90;;;;;;5054932;28;20032;-78
2023/06/06 02:59:16;;;;;;;27.75;21.95;;;7.50;99.90;;;;;;5048946;28;20432;-78
2023/06/06 03:01:44;;;;;;;23.52;20.98;;;7.50;99.90;;;;;;5055623;28;20093;-78
2023/06/06 03:04:14;;;;;;;24.08;21.02;;;7.50;99.90;;;;;;5054495;28;20051;-78
2023/06/06 03:06:40;;;;;;;34.40;24.35;;;7.50;99.90;;;;;;5052322;28;20437;-78
2023/06/06 03:09:07;;;;;;;30.42;23.67;;;7.50;99.90;;;;;;5055074;28;20094;-78
2023/06/06 03:11:37;;;;;;;26.88;21.67;;;7.50;99.90;;;;;;5055615;28;20076;-79
2023/06/06 03:14:02;;;;;;;29.83;23.02;;;7.50;99.90;;;;;;5056555;28;20059;-78
2023/06/06 03:16:28;;;;;;;28.95;21.63;;;7.50;99.90;;;;;;5061611;28;20028;-80
2023/06/06 03:18:55;;;;;;;25.35;20.90;;;7.50;99.90;;;;;;5059247;28;20036;-78
2023/06/06 03:21:23;;;;;;;25.77;22.13;;;7.50;99.90;;;;;;5069161;28;20089;-79
2023/06/06 03:23:50;;;;;;;34.60;25.92;;;7.50;99.90;;;;;;5092296;28;20402;-79
2023/06/06 03:26:16;;;;;;;36.72;26.15;;;7.50;99.90;;;;;;5058009;28;20102;-78
2023/06/06 03:28:42;;;;;;;25.23;22.27;;;7.50;99.90;;;;;;5046912;28;20033;-78
2023/06/06 03:31:08;;;;;;;32.55;23.95;;;7.60;99.90;;;;;;5075167;28;20082;-79
2023/06/06 03:33:40;;;;;;;30.33;23.88;;;7.60;99.90;;;;;;5075721;28;20132;-78
2023/06/06 03:36:08;;;;;;;35.72;25.25;;;7.60;99.90;;;;;;5063702;28;20097;-78
2023/06/06 03:38:37;;;;;;;28.60;22.75;;;7.60;99.90;;;;;;5053503;28;20035;-79
2023/06/06 03:41:02;;;;;;;20.92;18.77;;;7.60;99.90;;;;;;5062910;28;20501;-78
2023/06/06 03:43:29;;;;;;;27.63;22.63;;;7.60;99.90;;;;;;5054939;28;20089;-78
2023/06/06 03:45:58;;;;;;;25.15;21.83;;;7.60;99.90;;;;;;5068975;28;20085;-78
2023/06/06 03:48:23;;;;;;;26.65;22.23;;;7.60;99.90;;;;;;5057849;28;20039;-79
2023/06/06 03:50:49;;;;;;;30.52;23.88;;;7.60;99.90;;;;;;5065547;28;20127;-80
2023/06/06 03:53:16;;;;;;;36.17;26.58;;;7.70;99.90;;;;;;5055235;28;20037;-78
2023/06/06 03:55:44;;;;;;;36.25;26.25;;;7.70;99.90;;;;;;5068457;28;20036;-79
2023/06/06 03:58:10;;;;;;;31.02;24.25;;;7.70;99.90;;;;;;5074293;28;20040;-79
2023/06/06 04:00:39;;;;;;;35.15;24.77;;;7.80;99.90;;;;;;5100244;28;20038;-78
2023/06/06 04:03:06;;;;;;;30.17;23.20;;;7.80;99.90;;;;;;5074503;28;20070;-78
2023/06/06 04:05:33;;;;;;;29.70;23.42;;;7.90;99.90;;;;;;5058565;28;20044;-78
2023/06/06 04:07:59;;;;;;;28.75;23.75;;;8.00;99.90;;;;;;5052369;28;20436;-78
2023/06/06 04:10:25;;;;;;;29.80;23.45;;;8.00;99.90;;;;;;5056546;28;20077;-79
2023/06/06 04:12:51;;;;;;;28.75;22.88;;;8.00;99.90;;;;;;5054513;28;20045;-78
2023/06/06 04:15:17;;;;;;;31.83;24.30;;;8.10;99.90;;;;;;5054926;28;20143;-78
2023/06/06 04:17:44;;;;;;;29.20;23.35;;;8.10;99.90;;;;;;5061047;28;20036;-78
2023/06/06 04:20:10;;;;;;;28.13;22.65;;;8.20;99.90;;;;;;5083120;28;20533;-78
2023/06/06 04:22:36;;;;;;;27.48;21.85;;;8.30;99.90;;;;;;5073472;28;20489;-78
2023/06/06 04:25:02;;;;;;;26.77;21.05;;;8.50;99.90;;;;;;5064382;28;20040;-79
2023/06/06 04:27:28;;;;;;;21.38;18.23;;;8.90;99.90;;;;;;5061950;28;20104;-78
2023/06/06 04:29:57;;;;;;;20.38;18.23;;;9.30;99.90;;;;;;5065990;28;20119;-79
2023/06/06 04:32:24;;;;;;;19.55;17.20;;;9.80;99.90;;;;;;5057866;28;20047;-78
2023/06/06 04:34:56;;;;;;;18.23;15.00;;;10.40;99.90;;;;;;5055732;28;20036;-78
2023/06/06 04:37:23;;;;;;;17.58;14.70;;;10.80;99.90;;;;;;5052014;28;20505;-79
2023/06/06 04:39:52;;;;;;;16.20;14.52;;;11.10;99.90;;;;;;5063249;28;20046;-79
2023/06/06 04:42:23;;;;;;;17.90;14.38;;;11.50;99.90;;;;;;5057745;28;20071;-79
2023/06/06 04:44:52;;;;;;;15.57;13.55;;;11.70;99.90;;;;;;5054828;28;20038;-79
2023/06/06 04:47:20;;;;;;;16.20;12.63;;;12.10;99.90;;;;;;5065886;28;20057;-78
2023/06/06 04:49:47;;;;;;;14.13;12.63;;;12.30;99.90;;;;;;5067941;28;20062;-79
2023/06/06 04:52:14;;;;;;;13.70;12.07;;;12.60;99.90;;;;;;5053042;28;20490;-79
2023/06/06 04:54:41;;;;;;;14.10;12.48;;;12.80;99.90;;;;;;5060887;28;20092;-79
2023/06/06 04:57:08;;;;;;;12.85;11.45;;;13.10;99.90;;;;;;5070292;28;20055;-79
2023/06/06 04:59:35;;;;;;;13.80;11.05;;;13.30;99.90;;;;;;5043138;28;20040;-79
2023/06/06 05:02:03;;;;;;;13.02;10.98;;;13.60;99.90;;;;;;5052004;28;20040;-80
2023/06/06 05:04:31;;;;;;;14.35;11.68;;;13.90;99.90;;;;;;5073413;28;20036;-78
2023/06/06 05:07:08;;;;;;;13.48;10.77;;;14.20;99.90;;;;;;5058926;28;20043;-79
2023/06/06 05:09:34;;;;;;;13.32;10.75;;;14.50;99.90;;;;;;5053970;28;20036;-78
2023/06/06 05:12:00;;;;;;;13.10;10.68;;;14.60;99.90;;;;;;5047287;28;20445;-80
2023/06/06 05:14:25;;;;;;;11.30;10.07;;;14.80;99.90;;;;;;5061385;28;20493;-79
2023/06/06 05:16:57;;;;;;;12.43;9.95;;;15.00;99.90;;;;;;5063890;28;20353;-79
2023/06/06 05:19:23;;;;;;;12.30;9.77;;;15.00;99.90;;;;;;5045561;28;20593;-79
2023/06/06 05:21:49;;;;;;;12.43;9.63;;;15.20;99.90;;;;;;5055787;28;20039;-79
2023/06/06 05:24:15;;;;;;;15.68;10.15;;;15.40;99.90;;;;;;5057821;28;20386;-79
2023/06/06 05:26:42;;;;;;;10.98;9.35;;;15.40;99.90;;;;;;5057833;28;20036;-78
2023/06/06 05:29:08;;;;;;;12.02;9.45;;;15.40;99.90;;;;;;5054185;28;20101;-79
2023/06/06 05:31:37;;;;;;;12.35;8.82;;;15.60;99.90;;;;;;5045993;28;20075;-79
2023/06/06 05:34:05;;;;;;;11.15;9.40;;;15.80;99.90;;;;;;5086258;28;20049;-79
2023/06/06 05:36:31;;;;;;;12.63;9.20;;;15.80;99.90;;;;;;5070457;28;20032;-79
2023/06/06 05:38:57;;;;;;;11.15;9.35;;;16.00;99.90;;;;;;5070974;28;20040;-79
2023/06/06 05:41:23;;;;;;;12.55;9.15;;;16.00;99.90;;;;;;5069508;28;20036;-79
2023/06/06 05:43:50;;;;;;;10.43;9.23;;;16.00;99.90;;;;;;5054782;28;20105;-80
2023/06/06 05:46:21;;;;;;;12.68;9.55;;;16.00;99.90;;;;;;5054183;28;20119;-79
2023/06/06 05:48:47;;;;;;;10.75;8.93;;;16.10;99.90;;;;;;5055918;28;20032;-79
2023/06/06 05:51:12;;;;;;;12.35;9.07;;;16.20;99.90;;;;;;5051615;28;20192;-78
2023/06/06 05:53:44;;;;;;;13.13;9.18;;;16.20;99.90;;;;;;5056478;28;20032;-78
2023/06/06 05:56:12;;;;;;;10.93;8.40;;;16.20;99.90;;;;;;5071821;28;20486;-78
2023/06/06 05:58:42;;;;;;;12.55;9.07;;;15.80;99.90;;;;;;5058152;28;20052;-79
2023/06/06 06:01:12;;;;;;;13.57;9.00;;;15.30;99.90;;;;;;5057152;28;20075;-79
2023/06/06 06:03:39;;;;;;;13.02;9.07;;;14.90;99.90;;;;;;5059619;28;20081;-78
2023/06/06 06:06:11;;;;;;;12.30;8.70;;;14.60;99.90;;;;;;5057272;28;20428;-78
2023/06/06 06:08:39;;;;;;;11.50;8.95;;;14.30;99.90;;;;;;5061628;28;20401;-78
2023/06/06 06:11:10;;;;;;;13.45;10.07;;;14.20;99.90;;;;;;5081921;28;20078;-78
2023/06/06 06:13:39;;;;;;;11.00;9.15;;;14.00;99.90;;;;;;5060837;28;20045;-78
2023/06/06 06:16:05;;;;;;;12.27;9.73;;;14.00;99.90;;;;;;5060091;28;20257;-78
2023/06/06 06:18:36;;;;;;;13.10;9.60;;;13.80;99.90;;;;;;5053116;28;20036;-78
2023/06/06 06:21:02;;;;;;;13.80;10.20;;;13.70;99.90;;;;;;5062444;28;20040;-78
2023/06/06 06:23:28;;;;;;;18.00;10.52;;;13.80;99.90;;;;;;5061651;28;20047;-79
2023/06/06 06:25:54;;;;;;;12.30;10.00;;;13.70;99.90;;;;;;5060363;28;20485;-78
2023/06/06 06:28:23;;;;;;;13.93;9.75;;;13.70;99.90;;;;;;5054164;28;20036;-78
2023/06/06 06:30:49;;;;;;;13.88;9.77;;;13.80;99.90;;;;;;5060648;28;20068;-78
2023/06/06 06:33:18;;;;;;;12.48;9.77;;;13.70;99.90;;;;;;5061189;28;20040;-78
2023/06/06 06:35:46;;;;;;;13.05;9.68;;;13.70;99.90;;;;;;5060853;28;20413;-79
2023/06/06 06:38:17;;;;;;;14.93;9.73;;;13.80;99.90;;;;;;5060393;28;20051;-78
2023/06/06 06:40:43;;;;;;;13.20;9.38;;;13.90;99.90;;;;;;5060142;28;20554;-78
2023/06/06 06:43:08;;;;;;;13.90;10.27;;;14.00;99.90;;;;;;5051872;28;20122;-78
2023/06/06 06:45:34;;;;;;;16.23;10.38;;;13.90;99.90;;;;;;5076711;28;20117;-79
2023/06/06 06:48:02;;;;;;;15.43;10.65;;;14.00;99.90;;;;;;5056697;28;20044;-78
2023/06/06 06:50:30;;;;;;;15.57;10.15;;;14.10;99.90;;;;;;5059808;28;20101;-78
2023/06/06 06:52:58;;;;;;;15.48;9.43;;;14.10;99.90;;;;;;5059528;28;20040;-78
2023/06/06 06:55:25;;;;;;;12.10;9.02;;;14.20;99.90;;;;;;5059165;28;20052;-78
2023/06/06 06:57:55;;;;;;;14.25;9.45;;;14.40;99.90;;;;;;5093472;28;20063;-78
2023/06/06 07:00:27;;;;;;;12.95;9.23;;;14.40;99.90;;;;;;5059713;28;20031;-78
2023/06/06 07:02:54;;;;;;;12.60;8.82;;;14.50;99.90;;;;;;5068110;28;20032;-78
2023/06/06 07:05:20;;;;;;;12.45;8.57;;;14.60;99.90;;;;;;5059525;28;20189;-78
2023/06/06 07:07:54;;;;;;;12.68;8.90;;;14.70;99.90;;;;;;5059771;28;20044;-78
2023/06/06 07:10:25;;;;;;;12.40;9.20;;;14.70;99.90;;;;;;5076013;28;20047;-78
2023/06/06 07:12:52;;;;;;;13.35;9.00;;;14.70;99.90;;;;;;5051550;28;20382;-78
2023/06/06 07:15:19;;;;;;;12.18;9.15;;;14.80;99.90;;;;;;5057935;28;20042;-78
2023/06/06 07:17:51;;;;;;;13.88;8.80;;;14.90;99.90;;;;;;5058738;28;20086;-78
2023/06/06 07:20:22;;;;;;;14.00;8.93;;;15.10;99.90;;;;;;5091213;28;20035;-78
2023/06/06 07:22:50;;;;;;;12.48;8.38;;;15.30;99.90;;;;;;5050024;28;20581;-78
2023/06/06 07:25:18;;;;;;;13.05;8.85;;;15.30;99.90;;;;;;5075596;28;20036;-79
2023/06/06 07:27:44;;;;;;;15.48;9.63;;;15.40;99.90;;;;;;5057667;28;20066;-78
2023/06/06 07:30:13;;;;;;;13.45;9.25;;;15.50;99.90;;;;;;5058362;28;20578;-79
2023/06/06 07:32:44;;;;;;;13.50;9.27;;;15.60;99.90;;;;;;5052937;28;20510;-78
2023/06/06 07:35:11;;;;;;;12.48;8.68;;;15.80;99.90;;;;;;5074114;28;20082;-78
2023/06/06 07:37:37;;;;;;;12.32;8.45;;;15.80;99.90;;;;;;5040425;28;20049;-78
2023/06/06 07:40:11;;;;;;;12.57;8.07;;;15.90;99.90;;;;;;5063065;28;20045;-78
2023/06/06 07:42:39;;;;;;;13.95;8.15;;;16.20;99.90;;;;;;5056899;28;20046;-78
2023/06/06 07:45:05;;;;;;;14.23;8.07;;;16.50;99.90;;;;;;5060990;28;20537;-78
2023/06/06 07:47:31;;;;;;;11.68;7.68;;;17.00;99.90;;;;;;5059244;28;20060;-78
2023/06/06 07:49:57;;;;;;;10.60;7.80;;;17.70;99.90;;;;;;5059889;28;20101;-78
2023/06/06 07:52:23;;;;;;;10.38;7.20;;;18.60;99.90;;;;;;5060793;28;20040;-78
2023/06/06 07:54:49;;;;;;;11.27;6.72;;;19.40;99.90;;;;;;5094071;28;20040;-78
2023/06/06 07:57:19;;;;;;;9.82;6.72;;;20.10;99.90;;;;;;5056387;28;20112;-78
2023/06/06 07:59:45;;;;;;;9.48;6.80;;;20.50;99.90;;;;;;5061211;28;20052;-79
2023/06/06 08:02:21;;;;;;;12.23;6.68;;;20.80;99.90;;;;;;5061023;28;20028;-78
2023/06/06 08:04:47;;;;;;;9.32;6.20;;;21.10;92.20;;;;;;5060419;28;20490;-78
2023/06/06 08:07:14;;;;;;;9.40;6.03;;;21.40;99.90;;;;;;5054121;28;20048;-80
2023/06/06 08:09:41;;;;;;;11.65;6.60;;;21.70;85.20;;;;;;5089536;28;20048;-79
2023/06/06 08:12:07;;;;;;;13.77;7.00;;;21.60;79.10;;;;;;5061071;28;20499;-79
2023/06/06 08:14:35;;;;;;;10.15;6.25;;;21.50;82.10;;;;;;5061056;28;20044;-78
2023/06/06 08:17:03;;;;;;;10.52;6.82;;;21.70;90.50;;;;;;5058169;28;20036;-79
2023/06/06 08:19:28;;;;;;;11.48;6.95;;;22.00;77.80;;;;;;5092167;28;20129;-78
2023/06/06 08:21:54;;;;;;;12.30;7.20;;;21.90;86.40;;;;;;5058553;28;20032;-78
2023/06/06 08:24:20;;;;;;;11.43;7.45;;;22.20;88.70;;;;;;5059054;28;20032;-79
2023/06/06 08:26:46;;;;;;;10.02;6.88;;;22.70;73.60;;;;;;5073285;28;20047;-80
2023/06/06 08:29:14;;;;;;;9.32;7.13;;;22.70;71.80;;;;;;5058368;28;20478;-80
2023/06/06 08:31:43;;;;;;;8.00;6.28;;;22.70;72.00;;;;;;5058638;28;20498;-79
2023/06/06 08:34:09;;;;;;;9.38;6.82;;;22.80;73.20;;;;;;5057579;28;20044;-78
2023/06/06 08:36:35;;;;;;;9.40;6.65;;;23.00;73.80;;;;;;5074333;28;20035;-79
2023/06/06 08:39:06;;;;;;;8.55;6.25;;;23.40;74.30;;;;;;5093296;28;20048;-78
2023/06/06 08:41:38;;;;;;;8.50;6.10;;;23.70;69.70;;;;;;5077584;28;20101;-79
2023/06/06 08:44:04;;;;;;;9.52;6.13;;;23.70;68.80;;;;;;5054601;28;20033;-79
2023/06/06 08:46:36;;;;;;;9.55;6.47;;;23.80;70.00;;;;;;5054421;28;20056;-79
2023/06/06 08:49:06;;;;;;;9.55;6.75;;;24.10;68.20;;;;;;5055401;28;20127;-79
2023/06/06 08:51:34;;;;;;;9.23;6.35;;;24.30;65.40;;;;;;5057556;28;20128;-79
2023/06/06 08:54:04;;;;;;;10.23;6.38;;;24.00;67.00;;;;;;5038317;28;20110;-79
2023/06/06 08:56:31;;;;;;;8.23;6.13;;;24.10;65.40;;;;;;5037605;28;20074;-79
2023/06/06 08:58:57;;;;;;;8.70;6.07;;;24.00;67.10;;;;;;5037790;28;20046;-79
2023/06/06 09:01:22;;;;;;;9.60;6.40;;;24.30;67.30;;;;;;5051411;28;20040;-79
2023/06/06 09:03:52;;;;;;;8.50;6.40;;;24.60;64.70;;;;;;5056152;28;20119;-80
2023/06/06 09:06:19;;;;;;;10.38;6.20;;;24.80;67.20;;;;;;5054380;28;20478;-79
2023/06/06 09:08:47;;;;;;;10.20;6.15;;;25.30;63.30;;;;;;5061552;28;20036;-79
2023/06/06 09:11:13;;;;;;;9.57;5.60;;;25.30;64.70;;;;;;5057467;28;20040;-79
2023/06/06 09:13:48;;;;;;;9.63;6.00;;;25.40;65.00;;;;;;5083958;28;20040;-79
2023/06/06 09:16:16;;;;;;;7.70;5.70;;;25.70;62.90;;;;;;5054785;28;20401;-79
2023/06/06 09:18:42;;;;;;;11.07;6.10;;;25.80;60.10;;;;;;5081788;28;20044;-79
2023/06/06 09:21:09;;;;;;;9.82;5.43;;;25.60;61.80;;;;;;5082369;28;20402;-80
2023/06/06 09:23:34;;;;;;;10.05;6.00;;;25.60;61.30;;;;;;5057683;28;20387;-79
2023/06/06 09:26:00;;;;;;;7.93;5.50;;;25.50;59.80;;;;;;5056051;28;20346;-78
2023/06/06 09:28:39;;;;;;;7.22;5.05;;;25.20;62.00;;;;;;5075521;28;20031;-79
2023/06/06 09:31:30;;;;;;;20.35;5.78;;;25.50;58.50;;;;;;5079930;28;20075;-79
2023/06/06 09:33:57;;;;;;;9.02;5.40;;;24.80;60.80;;;;;;5055179;28;20078;-78
2023/06/06 09:36:26;;;;;;;8.43;5.30;;;24.50;65.50;;;;;;5073623;28;20044;-78
2023/06/06 09:38:54;;;;;;;9.65;5.15;;;24.90;62.20;;;;;;5075869;28;20051;-78
2023/06/06 09:41:21;;;;;;;8.95;4.97;;;25.00;62.80;;;;;;5096747;28;20057;-78
2023/06/06 09:43:48;;;;;;;8.30;5.32;;;25.20;61.20;;;;;;5077997;28;20398;-77
2023/06/06 09:46:17;;;;;;;9.93;5.40;;;25.40;62.40;;;;;;5058912;28;20044;-78
2023/06/06 09:48:58;;;;;;;8.38;5.22;;;25.90;60.30;;;;;;5061609;28;20481;-77
2023/06/06 09:51:24;;;;;;;9.68;5.20;;;26.20;58.20;;;;;;5054313;28;20040;-77
2023/06/06 09:53:51;;;;;;;9.35;5.20;;;25.90;58.80;;;;;;5060762;28;20043;-78
2023/06/06 09:56:23;;;;;;;8.55;4.95;;;25.70;61.10;;;;;;5095309;28;20073;-78
2023/06/06 09:58:56;;;;;;;7.95;4.90;;;26.00;60.30;;;;;;5061384;28;20070;-77
2023/06/06 10:01:31;;;;;;;;;;;26.30;60.80;;;;;;5053426;28;20043;-78
2023/06/06 10:03:57;;;;;;;9.73;5.75;;;26.90;57.50;;;;;;5106088;28;19916;-78
2023/06/06 10:06:33;;;;;;;8.18;5.43;;;26.90;56.60;;;;;;5056922;28;20036;-78
2023/06/06 10:09:05;;;;;;;8.25;4.68;;;26.40;56.50;;;;;;5057581;28;20051;-79
2023/06/06 10:11:32;;;;;;;9.13;5.70;;;25.70;58.30;;;;;;5092197;28;20097;-78
2023/06/06 10:13:59;;;;;;;9.38;5.75;;;25.70;58.10;;;;;;5073591;28;20117;-78
2023/06/06 10:16:29;;;;;;;8.18;5.28;;;25.50;60.00;;;;;;5065869;28;20120;-78
2023/06/06 10:18:55;;;;;;;13.70;5.40;;;25.70;59.40;;;;;;5080220;28;20092;-78
2023/06/06 10:21:23;;;;;;;8.45;5.00;;;25.80;60.80;;;;;;5096681;28;20044;-79
2023/06/06 10:23:48;;;;;;;9.02;5.40;;;26.30;59.60;;;;;;5059941;28;20078;-78
2023/06/06 10:26:23;;;;;;;21.40;5.65;;;26.80;57.40;;;;;;5060139;28;20405;-78
2023/06/06 10:29:04;;;;;;;6.93;5.60;;;26.50;57.50;;;;;;5060047;28;20093;-78
2023/06/06 10:31:40;;;;;;;9.95;5.60;;;26.40;58.10;;;;;;5075973;28;20050;-77
2023/06/06 10:34:16;;;;;;;25.20;6.10;;;26.40;59.40;;;;;;5060132;28;20071;-78
2023/06/06 10:36:44;;;;;;;7.95;5.63;;;26.60;58.80;;;;;;5075808;28;20436;-78
2023/06/06 10:39:21;;;;;;;7.18;5.32;;;26.80;60.00;;;;;;5080561;28;20043;-78
2023/06/06 10:41:51;;;;;;;8.27;5.38;;;27.20;58.20;;;;;;5092986;28;20385;-77
2023/06/06 10:44:43;;;;;;;8.63;5.35;;;27.30;58.80;;;;;;5079890;28;20040;-79
2023/06/06 10:47:21;;;;;;;9.82;5.97;;;27.60;59.60;;;;;;5052828;28;20051;-78
2023/06/06 10:50:11;;;;;;;9.77;5.60;;;27.80;57.30;;;;;;5060245;28;20032;-78
2023/06/06 10:52:45;;;;;;;8.80;5.88;;;27.80;59.10;;;;;;5092549;28;20044;-78
2023/06/06 10:55:23;;;;;;;6.53;5.35;;;28.10;56.60;;;;;;5086354;28;20444;-78
2023/06/06 10:57:53;;;;;;;7.38;5.25;;;28.30;56.20;;;;;;5059674;28;20040;-78
2023/06/06 11:00:25;;;;;;;7.32;5.28;;;28.40;56.40;;;;;;5059593;28;20036;-79
2023/06/06 11:02:52;;;;;;;8.20;5.95;;;28.70;53.30;;;;;;5076676;28;20047;-79
2023/06/06 11:05:21;;;;;;;6.38;5.28;;;28.10;53.80;;;;;;5060708;28;20122;-79
2023/06/06 11:07:49;;;;;;;7.38;5.35;;;27.40;54.70;;;;;;5093548;28;20104;-78
2023/06/06 11:10:20;;;;;;;6.38;5.05;;;26.90;58.20;;;;;;5059479;28;20119;-79
2023/06/06 11:12:50;;;;;;;7.28;5.40;;;27.40;55.00;;;;;;5093808;28;20111;-79
2023/06/06 11:15:32;;;;;;;9.50;6.03;;;27.30;55.30;;;;;;5068248;28;20040;-78
2023/06/06 11:18:03;;;;;;;10.60;5.43;;;26.90;56.70;;;;;;5053984;28;20182;-78
2023/06/06 11:20:40;;;;;;;21.55;5.80;;;27.10;58.60;;;;;;5081465;28;20437;-78
2023/06/06 11:23:08;;;;;;;7.95;5.47;;;27.40;58.00;;;;;;5076677;28;20032;-78
2023/06/06 11:25:35;;;;;;;8.90;5.68;;;27.70;56.30;;;;;;5063133;28;20090;-78
2023/06/06 11:28:02;;;;;;;7.50;5.05;;;27.60;56.90;;;;;;5059098;28;20444;-79
2023/06/06 11:30:35;;;;;;;6.45;5.30;;;27.90;56.00;;;;;;5094800;28;20528;-80
2023/06/06 11:33:08;;;;;;;6.50;5.13;;;27.80;56.00;;;;;;5061187;28;20035;-79
2023/06/06 11:35:37;;;;;;;8.10;5.78;;;27.90;55.60;;;;;;5061873;28;20032;-78
2023/06/06 11:38:03;;;;;;;7.97;5.63;;;27.90;55.00;;;;;;5053242;28;20044;-78
2023/06/06 11:40:31;;;;;;;9.52;6.28;;;27.80;55.40;;;;;;5060027;28;20032;-78
2023/06/06 11:42:58;;;;;;;8.93;5.65;;;27.80;54.70;;;;;;5058093;28;20044;-78
2023/06/06 11:45:24;;;;;;;7.65;5.88;;;27.50;56.20;;;;;;5074695;28;20085;-78
2023/06/06 11:47:51;;;;;;;7.22;5.35;;;27.50;55.60;;;;;;5059118;28;20028;-78
2023/06/06 11:50:38;;;;;;;7.97;5.88;;;27.60;58.70;;;;;;5059148;28;20072;-79
2023/06/06 11:53:05;;;;;;;8.48;5.72;;;28.10;55.60;;;;;;5075669;28;20540;-78
2023/06/06 11:55:38;;;;;;;9.48;6.38;;;28.30;54.20;;;;;;5052648;28;20078;-79
2023/06/06 11:58:04;;;;;;;7.28;5.43;;;28.20;53.60;;;;;;5059021;28;20097;-79
2023/06/06 12:00:30;;;;;;;9.77;5.50;;;27.80;55.20;;;;;;5059097;28;20429;-79
2023/06/06 12:02:59;;;;;;;8.07;6.50;;;27.70;55.20;;;;;;5058716;28;20036;-79
2023/06/06 12:05:26;;;;;;;8.48;5.55;;;27.60;54.40;;;;;;5058463;28;20032;-79
2023/06/06 12:07:58;;;;;;;8.40;6.57;;;27.40;56.30;;;;;;5058730;28;20139;-78
2023/06/06 12:10:29;;;;;;;9.65;6.22;;;27.70;57.00;;;;;;5059242;28;20044;-79
2023/06/06 12:12:55;;;;;;;8.02;6.00;;;28.10;54.70;;;;;;5059014;28;20040;-78
2023/06/06 12:15:22;;;;;;;8.48;5.88;;;28.10;55.90;;;;;;5057847;28;20031;-79
2023/06/06 12:17:48;;;;;;;8.18;5.55;;;28.30;55.00;;;;;;5060138;28;20064;-79
2023/06/06 12:20:24;;;;;;;8.77;6.82;;;28.30;54.00;;;;;;5055317;28;20056;-79
2023/06/06 12:22:51;;;;;;;11.85;5.78;;;28.00;53.30;;;;;;5057604;28;20040;-78
2023/06/06 12:25:27;;;;;;;11.45;6.32;;;27.30;55.90;;;;;;5059057;28;20097;-79
2023/06/06 12:27:53;;;;;;;8.68;6.20;;;27.10;55.20;;;;;;5058987;28;20390;-79
2023/06/06 12:30:32;;;;;;;12.05;6.28;;;26.90;55.60;;;;;;5092429;28;20105;-80
2023/06/06 12:33:01;;;;;;;9.35;6.90;;;26.70;56.10;;;;;;5063209;28;20051;-79
2023/06/06 12:35:27;;;;;;;7.82;6.28;;;26.50;56.10;;;;;;5097746;28;20111;-77
2023/06/06 12:37:53;;;;;;;9.85;7.03;;;26.40;57.00;;;;;;5094129;28;20079;-78
2023/06/06 12:40:20;;;;;;;9.98;7.05;;;26.70;58.20;;;;;;5060446;28;20036;-78
2023/06/06 12:43:00;;;;;;;8.88;6.55;;;27.10;56.60;;;;;;5058386;28;20485;-78
2023/06/06 12:45:27;;;;;;;9.10;6.40;;;27.40;56.70;;;;;;5076928;28;20048;-78